Time;durP1;ratioP1;P1;durP2;ratioP2;P2;SDS_P1;SDS_P2;PMS_P1;PMS_P2;Temp;Humidity;BMP_temperature;BMP_pressure;BME280_temperature;BME280_humidity;BME280_pressure;Samples;Min_cycle;Max_cycle;Signal;HPM_P1;HPM_P2
2023/01/22 00:00:32;;;;;;;16.95;9.93;;;-0.20;99.90;;;;;;6298766;22;20021;-81
2023/01/22 00:02:57;;;;;;;16.25;9.98;;;-0.20;99.90;;;;;;6297287;22;20016;-81
2023/01/22 00:05:23;;;;;;;21.73;10.60;;;0.60;99.90;;;;;;6298118;22;20019;-82
2023/01/22 00:07:49;;;;;;;18.08;10.88;;;-0.30;99.90;;;;;;6298944;22;20335;-81
2023/01/22 00:10:15;;;;;;;19.10;10.80;;;0.60;99.90;;;;;;6300553;22;20105;-81
2023/01/22 00:12:41;;;;;;;17.02;10.93;;;-0.40;99.90;;;;;;6301262;22;20016;-81
2023/01/22 00:15:07;;;;;;;22.75;11.68;;;-0.50;99.90;;;;;;6302022;22;20088;-81
2023/01/22 00:17:32;;;;;;;20.23;11.40;;;-0.50;99.90;;;;;;6301513;22;20011;-82
2023/01/22 00:19:58;;;;;;;19.85;11.05;;;-0.60;99.90;;;;;;6300190;22;20053;-81
2023/01/22 00:22:24;;;;;;;23.85;13.13;;;-0.60;99.90;;;;;;6301066;22;20098;-81
2023/01/22 00:24:49;;;;;;;24.25;13.38;;;0.40;99.90;;;;;;6300662;22;20015;-81
2023/01/22 00:27:15;;;;;;;20.55;13.25;;;-0.80;99.90;;;;;;6274192;22;20431;-82
2023/01/22 00:29:41;;;;;;;23.08;13.95;;;-0.10;99.90;;;;;;6300941;22;20012;-82
2023/01/22 00:32:06;;;;;;;21.52;13.77;;;-0.60;99.90;;;;;;6274482;22;20050;-82
2023/01/22 00:34:32;;;;;;;24.45;14.20;;;-0.90;99.90;;;;;;6299533;22;20026;-81
2023/01/22 00:36:58;;;;;;;27.73;14.25;;;-1.00;99.90;;;;;;6300186;22;20046;-82
2023/01/22 00:39:23;;;;;;;24.88;15.38;;;-1.00;99.90;;;;;;6303053;22;20281;-81
2023/01/22 00:41:49;;;;;;;26.90;15.63;;;-1.00;99.90;;;;;;6299100;22;20022;-82
2023/01/22 00:44:15;;;;;;;30.10;16.42;;;-1.10;99.90;;;;;;6300398;22;20513;-82
2023/01/22 00:46:40;;;;;;;32.92;16.40;;;-1.10;99.90;;;;;;6300389;22;20019;-82
2023/01/22 00:49:06;;;;;;;29.45;17.10;;;-1.20;99.90;;;;;;6273515;22;20019;-82
2023/01/22 00:51:32;;;;;;;32.17;17.52;;;-0.40;99.90;;;;;;6300661;22;20019;-83
2023/01/22 00:53:58;;;;;;;27.75;16.02;;;-1.20;99.90;;;;;;6299885;22;20014;-82
2023/01/22 00:56:24;;;;;;;31.00;17.50;;;-1.20;99.90;;;;;;6299768;22;20432;-82
2023/01/22 00:58:49;;;;;;;35.40;17.48;;;-1.20;99.90;;;;;;6299759;22;20055;-82
2023/01/22 01:01:16;;;;;;;29.27;17.25;;;-1.20;99.90;;;;;;6298994;22;20081;-82
2023/01/22 01:03:41;;;;;;;32.60;18.67;;;-1.10;99.90;;;;;;6300118;22;20023;-83
2023/01/22 01:06:13;;;;;;;32.70;17.60;;;-1.10;99.90;;;;;;6274046;22;20050;-81
2023/01/22 01:08:41;;;;;;;34.20;18.38;;;-1.10;99.90;;;;;;6273611;22;20015;-82
2023/01/22 01:11:13;;;;;;;28.48;17.23;;;-0.50;99.90;;;;;;6300071;22;20026;-82
2023/01/22 01:13:41;;;;;;;28.17;17.52;;;0.10;99.90;;;;;;6300109;22;20019;-82
2023/01/22 01:16:13;;;;;;;31.52;17.17;;;-1.00;99.90;;;;;;6272368;22;20019;-82
2023/01/22 01:18:39;;;;;;;33.97;17.55;;;-0.10;99.90;;;;;;6300076;22;20045;-83
2023/01/22 01:21:06;;;;;;;31.35;17.60;;;-1.00;99.90;;;;;;6299503;22;20011;-82
2023/01/22 01:23:32;;;;;;;31.38;17.25;;;-0.20;99.90;;;;;;6299186;22;20015;-82
2023/01/22 01:25:58;;;;;;;29.20;17.17;;;-0.70;99.90;;;;;;6299566;22;20336;-82
2023/01/22 01:28:24;;;;;;;29.38;17.02;;;-0.90;99.90;;;;;;6300519;22;20011;-82
2023/01/22 01:30:50;;;;;;;33.70;17.65;;;-0.80;99.90;;;;;;6271564;22;20017;-82
2023/01/22 01:33:16;;;;;;;29.42;17.52;;;-0.90;99.90;;;;;;6300526;22;20308;-82
2023/01/22 01:35:42;;;;;;;30.63;18.02;;;-0.90;99.90;;;;;;6273701;22;20096;-82
2023/01/22 01:38:08;;;;;;;29.08;16.85;;;-0.60;99.90;;;;;;6299499;22;20408;-82
2023/01/22 01:40:34;;;;;;;29.63;17.50;;;-0.90;99.90;;;;;;6300657;22;20102;-82
2023/01/22 01:43:00;;;;;;;28.88;17.27;;;-0.90;99.90;;;;;;6273767;22;20509;-82
2023/01/22 01:45:28;;;;;;;31.88;16.70;;;-0.90;99.90;;;;;;6300946;22;20090;-82
2023/01/22 01:47:59;;;;;;;27.35;17.15;;;-0.90;99.90;;;;;;6298961;22;20324;-82
2023/01/22 01:50:27;;;;;;;32.25;18.10;;;-0.90;99.90;;;;;;6300752;22;20019;-82
2023/01/22 01:52:55;;;;;;;28.85;18.35;;;-0.90;99.90;;;;;;6298936;22;20019;-82
2023/01/22 01:55:24;;;;;;;28.38;17.65;;;-0.80;99.90;;;;;;6300521;22;20019;-82
2023/01/22 01:57:51;;;;;;;27.52;17.45;;;-0.50;99.90;;;;;;6298358;22;20011;-82
2023/01/22 02:00:17;;;;;;;29.55;17.75;;;-0.80;99.90;;;;;;6299994;22;20029;-82
2023/01/22 02:02:44;;;;;;;35.47;18.13;;;-0.80;99.90;;;;;;6299034;22;20435;-82
2023/01/22 02:05:10;;;;;;;29.25;18.40;;;-0.70;99.90;;;;;;6299633;22;20026;-82
2023/01/22 02:07:36;;;;;;;31.77;18.38;;;-0.70;99.90;;;;;;6300439;22;20066;-82
2023/01/22 02:10:05;;;;;;;31.13;17.30;;;-0.70;99.90;;;;;;6299302;22;20529;-82
2023/01/22 02:12:32;;;;;;;28.30;17.55;;;-0.70;99.90;;;;;;6299576;22;20022;-82
2023/01/22 02:15:01;;;;;;;32.55;17.77;;;-0.70;99.90;;;;;;6298953;22;20026;-82
2023/01/22 02:17:26;;;;;;;30.92;17.35;;;-0.10;99.90;;;;;;6300492;22;20142;-82
2023/01/22 02:19:52;;;;;;;30.13;17.85;;;-0.70;99.90;;;;;;6297896;22;20076;-82
2023/01/22 02:22:26;;;;;;;34.60;18.98;;;-0.60;99.90;;;;;;6274576;22;20489;-82
2023/01/22 02:24:52;;;;;;;29.13;16.85;;;-0.60;99.90;;;;;;6299027;22;20023;-82
2023/01/22 02:27:18;;;;;;;31.52;17.90;;;-0.60;99.90;;;;;;6299558;22;20080;-82
2023/01/22 02:29:43;;;;;;;28.23;16.38;;;-0.60;99.90;;;;;;6298815;22;20011;-81
2023/01/22 02:32:09;;;;;;;27.48;15.57;;;-0.50;99.90;;;;;;6299031;22;20106;-82
2023/01/22 02:34:35;;;;;;;30.50;16.08;;;-0.50;99.90;;;;;;6298843;22;20669;-82
2023/01/22 02:37:00;;;;;;;29.40;16.58;;;-0.50;99.90;;;;;;6298528;22;20007;-82
2023/01/22 02:39:26;;;;;;;25.33;14.27;;;-0.40;99.90;;;;;;6299609;22;20019;-82
2023/01/22 02:41:52;;;;;;;23.23;12.57;;;-0.40;99.90;;;;;;6297803;22;20019;-82
2023/01/22 02:44:18;;;;;;;20.50;12.55;;;-0.40;99.90;;;;;;6299218;22;20015;-82
2023/01/22 02:46:43;;;;;;;19.83;11.25;;;-0.30;99.90;;;;;;6298465;22;20084;-82
2023/01/22 02:49:09;;;;;;;16.25;10.50;;;0.60;99.90;;;;;;6298567;22;20023;-82
2023/01/22 02:51:35;;;;;;;18.92;9.93;;;-0.30;99.90;;;;;;6274027;22;20023;-82
2023/01/22 02:54:01;;;;;;;26.52;10.57;;;-0.20;99.90;;;;;;6297912;22;20080;-82
2023/01/22 02:56:26;;;;;;;14.55;9.18;;;0.50;99.90;;;;;;6299693;22;20424;-82
2023/01/22 02:58:52;;;;;;;15.55;8.68;;;-0.20;99.90;;;;;;6298756;22;20456;-82
2023/01/22 03:01:22;;;;;;;21.48;8.23;;;0.60;99.90;;;;;;6297117;22;20309;-82
2023/01/22 03:03:50;;;;;;;13.00;7.10;;;-0.10;99.90;;;;;;6298604;22;20134;-82
2023/01/22 03:06:20;;;;;;;16.83;7.95;;;0.60;99.90;;;;;;6298685;22;20132;-82
2023/01/22 03:08:47;;;;;;;13.98;7.20;;;1.00;99.90;;;;;;6297862;22;20019;-82
2023/01/22 03:11:12;;;;;;;13.30;6.72;;;-0.10;99.90;;;;;;6298842;22;20046;-82
2023/01/22 03:21:51;;;;;;;13.10;6.18;;;0.10;99.90;;;;;;6298635;22;20432;-81
2023/01/22 03:24:16;;;;;;;11.30;6.28;;;0.20;99.90;;;;;;6297875;22;20106;-81
2023/01/22 03:26:42;;;;;;;12.07;6.18;;;0.10;99.90;;;;;;6299583;22;20056;-81
2023/01/22 03:29:08;;;;;;;8.45;5.20;;;0.50;99.90;;;;;;6297488;22;20090;-81
2023/01/22 03:31:33;;;;;;;12.75;5.70;;;0.80;99.90;;;;;;6298655;22;20019;-81
2023/01/22 03:33:59;;;;;;;12.48;5.50;;;0.20;99.90;;;;;;6300699;22;20016;-81
2023/01/22 03:36:25;;;;;;;13.73;6.40;;;0.30;99.90;;;;;;6297625;22;20352;-81
2023/01/22 03:38:51;;;;;;;13.70;5.80;;;0.20;99.90;;;;;;6300543;22;20053;-81
2023/01/22 03:41:17;;;;;;;10.68;5.75;;;0.90;99.90;;;;;;6298930;22;20019;-81
2023/01/22 03:43:44;;;;;;;11.07;5.60;;;0.70;99.90;;;;;;6300255;22;20023;-81
2023/01/22 03:46:12;;;;;;;9.23;4.85;;;0.30;99.90;;;;;;6301680;22;20308;-81
2023/01/22 03:48:38;;;;;;;11.50;5.13;;;0.50;99.90;;;;;;6302244;22;20451;-81
2023/01/22 03:51:07;;;;;;;8.27;5.15;;;0.30;99.90;;;;;;6301064;22;20026;-80
2023/01/22 03:53:34;;;;;;;9.07;5.25;;;0.30;99.90;;;;;;6302375;22;20024;-81
2023/01/22 03:56:02;;;;;;;9.90;5.25;;;0.30;99.90;;;;;;6302132;22;20050;-81
2023/01/22 03:58:29;;;;;;;13.05;5.63;;;0.80;99.90;;;;;;6301383;22;20015;-80
2023/01/22 04:00:56;;;;;;;12.70;5.50;;;1.40;99.90;;;;;;6300858;22;20015;-81
2023/01/22 04:03:25;;;;;;;10.75;5.13;;;0.40;99.90;;;;;;6302021;22;20086;-81
2023/01/22 04:05:51;;;;;;;11.88;5.80;;;0.40;99.90;;;;;;6300937;22;20027;-81
2023/01/22 04:08:17;;;;;;;11.40;5.50;;;0.40;99.90;;;;;;6302734;22;20047;-80
2023/01/22 04:10:42;;;;;;;10.93;5.15;;;0.40;99.90;;;;;;6301804;22;20343;-81
2023/01/22 04:13:08;;;;;;;11.15;5.50;;;0.40;99.90;;;;;;6303773;22;20018;-80
2023/01/22 04:15:34;;;;;;;10.35;5.53;;;0.40;99.90;;;;;;6301780;22;20034;-80
2023/01/22 04:17:59;;;;;;;9.82;5.35;;;1.40;99.90;;;;;;6301573;22;20011;-80
2023/01/22 04:20:25;;;;;;;12.20;5.57;;;0.40;99.90;;;;;;6303734;22;20023;-81
2023/01/22 04:22:51;;;;;;;15.05;5.72;;;0.90;99.90;;;;;;6301298;22;20732;-81
2023/01/22 04:25:16;;;;;;;9.70;5.55;;;0.60;99.90;;;;;;6301896;22;20102;-80
2023/01/22 04:27:44;;;;;;;11.02;5.78;;;0.40;99.90;;;;;;6301603;22;20015;-80
2023/01/22 04:30:10;;;;;;;12.00;5.32;;;0.90;99.90;;;;;;6301993;22;20458;-81
2023/01/22 04:32:36;;;;;;;10.60;5.28;;;0.50;99.90;;;;;;6302967;22;20022;-81
2023/01/22 04:35:02;;;;;;;13.13;5.45;;;0.90;99.90;;;;;;6301350;22;20019;-81
2023/01/22 04:37:29;;;;;;;11.70;5.65;;;1.40;99.90;;;;;;6302727;22;20015;-81
2023/01/22 04:39:54;;;;;;;13.65;5.68;;;0.70;99.90;;;;;;6300086;22;20022;-80
2023/01/22 04:42:20;;;;;;;11.82;5.43;;;0.50;99.90;;;;;;6302874;22;20090;-81
2023/01/22 04:44:46;;;;;;;13.85;5.82;;;0.80;99.90;;;;;;6300964;22;20023;-81
2023/01/22 04:47:11;;;;;;;10.80;5.22;;;1.30;99.90;;;;;;6301411;22;20018;-80
2023/01/22 04:49:37;;;;;;;11.80;5.60;;;0.50;99.90;;;;;;6302694;22;20335;-81
2023/01/22 04:52:03;;;;;;;13.55;6.00;;;1.00;99.90;;;;;;6303082;22;20015;-81
2023/01/22 04:54:28;;;;;;;11.05;5.57;;;0.60;99.90;;;;;;6302742;22;20045;-82
2023/01/22 04:56:54;;;;;;;10.63;5.38;;;1.10;99.90;;;;;;6300453;22;20022;-81
2023/01/22 04:59:20;;;;;;;10.02;5.25;;;0.60;99.90;;;;;;6300624;22;20020;-80
2023/01/22 05:01:45;;;;;;;13.18;5.68;;;1.30;99.90;;;;;;6300819;22;20023;-81
2023/01/22 05:04:11;;;;;;;12.07;5.38;;;0.60;99.90;;;;;;6296818;22;20389;-81
2023/01/22 05:06:37;;;;;;;9.18;5.10;;;1.30;99.90;;;;;;6300871;22;20007;-81
2023/01/22 05:09:02;;;;;;;9.57;5.20;;;1.00;99.90;;;;;;6299425;22;20455;-81
2023/01/22 05:11:28;;;;;;;11.98;4.80;;;0.60;99.90;;;;;;6300476;22;20015;-80
2023/01/22 05:13:54;;;;;;;8.52;5.47;;;0.60;99.90;;;;;;6274583;22;20050;-80
2023/01/22 05:16:19;;;;;;;12.07;5.20;;;1.20;99.90;;;;;;6298488;22;20015;-80
2023/01/22 05:18:45;;;;;;;8.70;5.40;;;0.50;99.90;;;;;;6300538;22;20030;-80
2023/01/22 05:21:11;;;;;;;18.80;6.10;;;0.80;99.90;;;;;;6300870;22;20077;-80
2023/01/22 05:23:36;;;;;;;9.55;5.30;;;0.60;99.90;;;;;;6299568;22;20094;-81
2023/01/22 05:26:02;;;;;;;11.38;5.07;;;0.50;99.90;;;;;;6300048;22;20030;-81
2023/01/22 05:28:28;;;;;;;12.30;5.53;;;1.40;99.90;;;;;;6300462;22;20007;-80
2023/01/22 05:30:53;;;;;;;10.10;6.00;;;0.60;99.90;;;;;;6300651;22;20023;-81
2023/01/22 05:33:19;;;;;;;11.38;5.57;;;0.60;99.90;;;;;;6300701;22;20018;-81
2023/01/22 05:35:45;;;;;;;12.80;5.85;;;0.50;99.90;;;;;;6297925;22;20069;-81
2023/01/22 05:38:10;;;;;;;12.82;5.88;;;0.50;99.90;;;;;;6300434;22;20015;-80
2023/01/22 05:40:36;;;;;;;9.68;5.85;;;1.20;99.90;;;;;;6300024;22;20026;-80
2023/01/22 05:43:02;;;;;;;11.45;6.00;;;1.30;99.90;;;;;;6298703;22;20027;-81
2023/01/22 05:45:28;;;;;;;13.98;6.05;;;0.50;99.90;;;;;;6273951;22;20019;-80
2023/01/22 05:47:53;;;;;;;10.40;6.38;;;0.40;99.90;;;;;;6298662;22;20023;-80
2023/01/22 05:50:20;;;;;;;10.88;5.93;;;1.30;99.90;;;;;;6299584;22;20359;-81
2023/01/22 05:52:46;;;;;;;9.95;6.00;;;0.40;99.90;;;;;;6299169;22;20102;-80
2023/01/22 05:55:12;;;;;;;12.18;6.85;;;0.40;99.90;;;;;;6300227;22;20021;-81
2023/01/22 05:57:38;;;;;;;10.95;6.53;;;0.40;99.90;;;;;;6301294;22;20465;-81
2023/01/22 06:00:05;;;;;;;12.68;6.60;;;1.60;99.90;;;;;;6298286;22;20030;-81
2023/01/22 06:02:31;;;;;;;11.30;6.78;;;0.40;99.90;;;;;;6299885;22;20015;-80
2023/01/22 06:04:56;;;;;;;15.10;6.28;;;1.50;99.90;;;;;;6298010;22;20054;-80
2023/01/22 06:07:22;;;;;;;9.50;6.30;;;0.70;99.90;;;;;;6299874;22;20095;-80
2023/01/22 06:09:48;;;;;;;11.68;7.55;;;0.40;99.90;;;;;;6299280;22;20359;-80
2023/01/22 06:12:14;;;;;;;12.55;7.00;;;0.40;99.90;;;;;;6301096;22;20058;-80
2023/01/22 06:14:40;;;;;;;12.98;6.50;;;0.80;99.90;;;;;;6301891;22;20132;-81
2023/01/22 06:17:06;;;;;;;11.75;6.47;;;0.50;99.90;;;;;;6298662;22;20058;-80
2023/01/22 06:19:32;;;;;;;13.05;6.68;;;0.30;99.90;;;;;;6299329;22;20054;-81
2023/01/22 06:21:59;;;;;;;13.23;6.72;;;0.70;99.90;;;;;;6300063;22;20034;-81
2023/01/22 06:24:24;;;;;;;14.52;6.78;;;0.40;99.90;;;;;;6299964;22;20023;-81
2023/01/22 06:26:50;;;;;;;13.95;7.13;;;0.40;99.90;;;;;;6298530;22;20096;-81
2023/01/22 06:29:16;;;;;;;13.18;6.75;;;1.10;99.90;;;;;;6299134;22;20030;-80
2023/01/22 06:31:41;;;;;;;10.30;6.80;;;0.40;99.90;;;;;;6273881;22;20320;-80
2023/01/22 06:34:08;;;;;;;10.95;6.65;;;0.30;99.90;;;;;;6298386;22;20496;-81
2023/01/22 06:36:33;;;;;;;11.35;6.90;;;1.10;99.90;;;;;;6299317;22;20026;-81
2023/01/22 06:38:59;;;;;;;12.73;7.25;;;0.40;99.90;;;;;;6298006;22;20098;-80
2023/01/22 06:41:25;;;;;;;11.18;6.63;;;1.50;99.90;;;;;;6301137;22;20076;-80
2023/01/22 06:43:50;;;;;;;10.25;6.90;;;1.30;99.90;;;;;;6298972;22;20024;-80
2023/01/22 06:46:16;;;;;;;12.95;6.60;;;0.40;99.90;;;;;;6297834;22;20478;-80
2023/01/22 06:48:43;;;;;;;11.30;6.47;;;0.50;99.90;;;;;;6298947;22;20027;-81
2023/01/22 06:51:09;;;;;;;12.85;6.70;;;1.30;99.90;;;;;;6301766;22;20026;-81
2023/01/22 06:53:35;;;;;;;9.35;7.15;;;0.30;99.90;;;;;;6298972;22;20056;-80
2023/01/22 06:56:01;;;;;;;11.63;6.90;;;0.50;99.90;;;;;;6299180;22;20007;-81
2023/01/22 06:58:27;;;;;;;12.52;7.18;;;0.30;99.90;;;;;;6299950;22;20019;-81
2023/01/22 07:00:53;;;;;;;20.63;7.40;;;1.40;99.90;;;;;;6296713;22;20027;-81
2023/01/22 07:03:19;;;;;;;9.98;7.38;;;0.70;99.90;;;;;;6299939;22;20011;-81
2023/01/22 07:05:44;;;;;;;9.68;6.82;;;1.00;99.90;;;;;;6298314;22;20115;-80
2023/01/22 07:08:13;;;;;;;12.63;6.85;;;1.30;99.90;;;;;;6273351;22;20030;-80
2023/01/22 07:10:39;;;;;;;9.70;6.82;;;0.30;99.90;;;;;;6299442;22;20054;-80
2023/01/22 07:13:06;;;;;;;8.48;6.65;;;0.70;99.90;;;;;;6299155;22;20019;-80
2023/01/22 07:15:32;;;;;;;11.23;6.30;;;0.30;99.90;;;;;;6298465;22;20066;-80
2023/01/22 07:17:58;;;;;;;14.68;6.78;;;0.20;99.90;;;;;;6297722;22;20015;-81
2023/01/22 07:20:24;;;;;;;12.30;6.57;;;1.00;99.90;;;;;;6301846;22;20090;-80
2023/01/22 07:22:50;;;;;;;11.73;7.10;;;0.20;99.90;;;;;;6297614;22;20339;-81
2023/01/22 07:25:17;;;;;;;13.95;7.10;;;0.60;99.90;;;;;;6299708;22;20077;-81
2023/01/22 07:27:43;;;;;;;14.80;7.88;;;0.20;99.90;;;;;;6299586;22;20020;-81
2023/01/22 07:30:09;;;;;;;9.27;6.55;;;0.20;99.90;;;;;;6297596;22;20091;-81
2023/01/22 07:32:35;;;;;;;9.27;6.80;;;0.20;99.90;;;;;;6299052;22;20072;-81
2023/01/22 07:35:01;;;;;;;9.93;6.70;;;0.20;99.90;;;;;;6300029;22;20069;-81
2023/01/22 07:37:27;;;;;;;10.88;7.45;;;0.90;99.90;;;;;;6298053;22;20455;-80
2023/01/22 07:39:52;;;;;;;8.45;6.65;;;0.20;99.90;;;;;;6297227;22;20015;-80
2023/01/22 07:42:18;;;;;;;11.45;7.72;;;1.10;99.90;;;;;;6299537;22;20041;-80
2023/01/22 07:44:44;;;;;;;13.52;7.55;;;0.40;99.90;;;;;;6297433;22;20347;-81
2023/01/22 07:47:09;;;;;;;15.63;8.23;;;0.90;99.90;;;;;;6297988;22;20019;-81
2023/01/22 07:49:35;;;;;;;12.68;7.70;;;0.20;99.90;;;;;;6298200;22;20034;-81
2023/01/22 07:52:01;;;;;;;11.13;7.32;;;0.60;99.90;;;;;;6298385;22;20012;-81
2023/01/22 07:54:26;;;;;;;12.48;7.75;;;0.20;99.90;;;;;;6298328;22;20018;-80
2023/01/22 07:56:52;;;;;;;9.48;7.30;;;0.50;99.90;;;;;;6297145;22;20019;-81
2023/01/22 07:59:18;;;;;;;12.02;7.70;;;0.50;99.90;;;;;;6297426;22;20041;-81
2023/01/22 08:01:43;;;;;;;10.27;7.90;;;0.30;99.90;;;;;;6297654;22;20462;-81
2023/01/22 08:04:09;;;;;;;14.77;8.13;;;0.70;99.90;;;;;;6297691;22;20019;-81
2023/01/22 08:06:35;;;;;;;13.40;7.95;;;0.70;99.90;;;;;;6298777;22;20087;-80
2023/01/22 08:09:00;;;;;;;12.13;8.05;;;1.00;99.90;;;;;;6298912;22;20419;-80
2023/01/22 08:11:27;;;;;;;10.98;7.07;;;1.20;99.90;;;;;;6298138;22;20443;-80
2023/01/22 08:13:53;;;;;;;13.00;8.18;;;0.60;99.90;;;;;;6298517;22;20525;-81
2023/01/22 08:16:20;;;;;;;13.30;7.80;;;0.70;99.90;;;;;;6298346;22;20016;-81
2023/01/22 08:18:46;;;;;;;10.80;7.57;;;0.20;99.90;;;;;;6297144;22;20077;-80
2023/01/22 08:21:11;;;;;;;11.63;7.95;;;0.10;99.90;;;;;;6299185;22;20012;-81
2023/01/22 08:23:37;;;;;;;13.00;7.82;;;0.20;99.90;;;;;;6298653;22;20097;-81
2023/01/22 08:26:03;;;;;;;11.43;7.25;;;0.20;99.90;;;;;;6296712;22;20015;-81
2023/01/22 08:28:30;;;;;;;13.35;7.85;;;0.20;99.90;;;;;;6299527;22;20042;-81
2023/01/22 08:30:57;;;;;;;10.65;7.15;;;0.20;99.90;;;;;;6298130;22;20046;-81
2023/01/22 08:33:23;;;;;;;10.82;7.28;;;0.50;99.90;;;;;;6326452;22;20050;-81
2023/01/22 08:35:49;;;;;;;10.90;7.72;;;0.70;99.90;;;;;;6299220;22;20627;-81
2023/01/22 08:38:15;;;;;;;11.38;6.75;;;0.10;99.90;;;;;;6300738;22;20100;-81
2023/01/22 08:40:40;;;;;;;13.27;7.53;;;0.50;99.90;;;;;;6299512;22;20019;-81
2023/01/22 08:43:06;;;;;;;12.80;7.57;;;-0.10;99.90;;;;;;6298975;22;20023;-81
2023/01/22 08:45:32;;;;;;;9.75;6.82;;;0.80;99.90;;;;;;6298979;22;20398;-80
2023/01/22 08:47:59;;;;;;;13.20;7.32;;;0.80;99.90;;;;;;6298668;22;20081;-81
2023/01/22 08:50:25;;;;;;;9.70;6.63;;;0.10;99.90;;;;;;6274801;22;20105;-81
2023/01/22 08:52:51;;;;;;;13.82;7.32;;;0.00;99.90;;;;;;6273171;22;20087;-81
2023/01/22 08:55:17;;;;;;;11.73;7.13;;;0.00;99.90;;;;;;6300477;22;20050;-81
2023/01/22 08:57:43;;;;;;;16.55;7.88;;;0.00;99.90;;;;;;6300161;22;20340;-80
2023/01/22 09:00:10;;;;;;;12.35;6.90;;;0.00;99.90;;;;;;6298350;22;20096;-81
2023/01/22 09:02:35;;;;;;;10.82;6.95;;;0.00;99.90;;;;;;6300069;22;20026;-81
2023/01/22 09:05:01;;;;;;;12.40;6.60;;;0.50;99.90;;;;;;6304484;22;20018;-81
2023/01/22 09:07:27;;;;;;;9.77;6.60;;;1.10;99.90;;;;;;6332632;22;20128;-81
2023/01/22 09:09:52;;;;;;;10.00;6.57;;;0.80;99.90;;;;;;6332905;22;20049;-81
2023/01/22 09:12:18;;;;;;;11.18;6.82;;;0.00;99.90;;;;;;6304775;22;20461;-81
2023/01/22 09:14:44;;;;;;;12.63;7.00;;;0.10;99.90;;;;;;6303370;22;20040;-81
2023/01/22 09:17:10;;;;;;;11.43;6.57;;;0.30;99.90;;;;;;6332918;22;20018;-81
2023/01/22 09:19:35;;;;;;;10.30;6.47;;;0.00;99.90;;;;;;6305416;22;20025;-81
2023/01/22 09:22:05;;;;;;;13.95;7.55;;;0.30;99.90;;;;;;6331881;22;20029;-80
2023/01/22 09:24:31;;;;;;;9.88;6.90;;;0.00;99.90;;;;;;6332499;22;20018;-81
2023/01/22 09:26:57;;;;;;;10.52;6.50;;;0.60;99.90;;;;;;6304717;22;20580;-81
2023/01/22 09:29:23;;;;;;;10.30;6.90;;;0.40;99.90;;;;;;6303359;22;20779;-81
2023/01/22 09:31:50;;;;;;;11.52;7.95;;;0.30;99.90;;;;;;6304055;22;20046;-81
2023/01/22 09:34:15;;;;;;;11.65;6.47;;;0.10;99.90;;;;;;6305279;22;20042;-81
2023/01/22 09:36:42;;;;;;;12.63;7.28;;;0.40;99.90;;;;;;6331341;22;20029;-82
2023/01/22 09:39:08;;;;;;;11.77;7.43;;;0.20;99.90;;;;;;6304596;22;20124;-81
2023/01/22 09:41:38;;;;;;;14.40;7.93;;;0.30;99.90;;;;;;6303989;22;20031;-81
2023/01/22 09:44:25;;;;;;;13.05;7.47;;;1.50;99.90;;;;;;6303989;22;20491;-81
2023/01/22 09:46:57;;;;;;;14.40;6.95;;;1.50;99.90;;;;;;6331699;22;20431;-82
2023/01/22 09:49:28;;;;;;;12.38;7.60;;;1.10;99.90;;;;;;6304196;22;20015;-81
2023/01/22 09:51:59;;;;;;;14.07;7.40;;;1.50;99.90;;;;;;6304156;22;20011;-81
2023/01/22 09:54:27;;;;;;;12.73;7.55;;;0.90;99.90;;;;;;6305147;22;20030;-81
2023/01/22 09:56:57;;;;;;;13.63;7.22;;;0.90;99.90;;;;;;6328590;22;20079;-81
2023/01/22 09:59:29;;;;;;;15.15;7.70;;;1.50;99.90;;;;;;6304222;22;20037;-82
2023/01/22 10:02:00;;;;;;;11.23;7.40;;;0.80;99.90;;;;;;6303733;22;20019;-81
2023/01/22 10:04:36;;;;;;;11.82;7.50;;;0.90;99.90;;;;;;6324968;22;20015;-82
2023/01/22 10:07:06;;;;;;;11.65;7.15;;;1.00;99.90;;;;;;6299298;22;20058;-83
2023/01/22 10:09:38;;;;;;;11.02;7.57;;;0.80;99.90;;;;;;6296334;22;20065;-83
2023/01/22 10:12:11;;;;;;;15.38;7.78;;;0.90;99.90;;;;;;6296936;22;20019;-84
2023/01/22 10:14:38;;;;;;;8.68;7.20;;;1.00;99.90;;;;;;6298438;22;20012;-83
2023/01/22 10:17:11;;;;;;;15.07;8.18;;;1.50;99.90;;;;;;6296437;22;20041;-84
2023/01/22 10:19:43;;;;;;;15.40;8.32;;;1.00;99.90;;;;;;6299337;22;20050;-84
2023/01/22 10:22:18;;;;;;;13.02;8.13;;;1.00;99.90;;;;;;6272390;22;20517;-84
2023/01/22 10:24:43;;;;;;;12.20;7.20;;;1.60;99.90;;;;;;6297715;22;20152;-83
2023/01/22 10:27:16;;;;;;;11.35;7.88;;;1.10;99.90;;;;;;6299388;22;20459;-84
2023/01/22 10:29:54;;;;;;;13.15;7.88;;;2.10;99.90;;;;;;6297894;22;20026;-84
2023/01/22 10:32:24;;;;;;;14.05;8.25;;;1.40;99.90;;;;;;6298203;22;20019;-83
2023/01/22 10:35:09;;;;;;;12.02;7.78;;;1.40;99.90;;;;;;6272715;22;20026;-84
2023/01/22 10:37:42;;;;;;;16.83;7.88;;;2.10;99.90;;;;;;6271575;22;20115;-84
2023/01/22 10:40:30;;;;;;;14.30;8.05;;;1.60;99.90;;;;;;6296946;22;20015;-84
2023/01/22 10:43:10;;;;;;;10.02;7.72;;;1.60;99.90;;;;;;6298377;22;20007;-84
2023/01/22 10:45:37;;;;;;;12.00;7.47;;;1.70;99.90;;;;;;6296904;22;20463;-83
2023/01/22 10:48:05;;;;;;;11.88;7.35;;;2.10;99.90;;;;;;6298008;22;20022;-83
2023/01/22 10:50:31;;;;;;;12.30;7.28;;;1.20;99.90;;;;;;6298619;22;20376;-83
2023/01/22 10:52:57;;;;;;;12.05;6.95;;;1.20;99.90;;;;;;6297097;22;20459;-83
2023/01/22 10:55:27;;;;;;;10.32;7.22;;;1.20;99.90;;;;;;6298250;22;20375;-83
2023/01/22 10:57:58;;;;;;;11.68;7.13;;;1.30;99.90;;;;;;6298463;22;20019;-83
2023/01/22 11:00:34;;;;;;;12.15;7.38;;;2.00;99.90;;;;;;6271364;22;20019;-83
2023/01/22 11:03:12;;;;;;;9.13;6.95;;;1.40;99.90;;;;;;6297066;22;20109;-82
2023/01/22 11:05:42;;;;;;;11.90;7.40;;;1.50;99.90;;;;;;6298964;22;20031;-83
2023/01/22 11:08:15;;;;;;;14.02;7.10;;;2.20;99.90;;;;;;6298560;22;20304;-83
2023/01/22 11:10:50;;;;;;;11.57;7.07;;;2.30;99.90;;;;;;6297097;22;20084;-83
2023/01/22 11:13:23;;;;;;;10.55;6.03;;;2.60;99.90;;;;;;6296293;22;20038;-83
2023/01/22 11:16:04;;;;;;;12.15;7.40;;;1.40;99.90;;;;;;6296832;22;20046;-83
2023/01/22 11:18:36;;;;;;;13.15;6.97;;;1.40;99.90;;;;;;6298729;22;20512;-83
2023/01/22 11:21:13;;;;;;;11.52;6.85;;;2.50;99.90;;;;;;6270914;22;20473;-84
2023/01/22 11:23:55;;;;;;;12.07;6.93;;;1.50;99.90;;;;;;6298375;22;20432;-83
2023/01/22 11:26:39;;;;;;;9.07;6.55;;;1.50;99.90;;;;;;6299015;22;20068;-82
2023/01/22 11:29:11;;;;;;;11.85;6.70;;;1.50;99.90;;;;;;6271570;22;20027;-82
2023/01/22 11:31:57;;;;;;;10.77;6.68;;;2.40;99.90;;;;;;6299255;22;20023;-82
2023/01/22 11:34:28;;;;;;;14.07;6.25;;;1.60;99.90;;;;;;6298588;22;20049;-82
2023/01/22 11:37:03;;;;;;;9.07;6.82;;;1.60;99.90;;;;;;6298142;22;20090;-83
2023/01/22 11:39:38;;;;;;;10.35;6.53;;;2.30;99.90;;;;;;6268844;22;20378;-82
2023/01/22 11:42:36;;;;;;;12.93;7.22;;;1.70;99.90;;;;;;6294743;22;20061;-82
2023/01/22 11:45:15;;;;;;;9.52;6.25;;;1.70;99.90;;;;;;6294339;22;20034;-82
2023/01/22 11:48:03;;;;;;;11.20;6.60;;;1.80;99.90;;;;;;6294780;22;20015;-81
2023/01/22 11:50:37;;;;;;;12.35;6.95;;;2.00;99.90;;;;;;6295045;22;20051;-82
2023/01/22 11:53:24;;;;;;;10.43;6.95;;;2.60;99.90;;;;;;6292668;22;20023;-82
2023/01/22 11:55:59;;;;;;;10.63;6.57;;;1.80;99.90;;;;;;6268753;22;20011;-81
2023/01/22 11:58:39;;;;;;;15.45;7.18;;;2.20;99.90;;;;;;6295986;22;20026;-82
2023/01/22 12:01:16;;;;;;;13.18;7.05;;;1.80;99.90;;;;;;6293907;22;20019;-81
2023/01/22 12:04:06;;;;;;;11.95;5.90;;;1.90;99.90;;;;;;6295681;22;20049;-81
2023/01/22 12:06:47;;;;;;;11.07;6.95;;;1.90;99.90;;;;;;6300153;22;20027;-82
2023/01/22 12:09:27;;;;;;;11.57;6.55;;;2.00;99.90;;;;;;6297811;22;20451;-82
2023/01/22 12:12:12;;;;;;;15.05;6.93;;;2.00;99.90;;;;;;6271399;22;20156;-82
2023/01/22 12:14:49;;;;;;;9.98;6.22;;;2.10;99.90;;;;;;6297491;22;20431;-81
2023/01/22 12:17:44;;;;;;;14.10;6.18;;;2.20;99.90;;;;;;6296882;22;20023;-82
2023/01/22 12:20:25;;;;;;;14.00;6.85;;;2.20;99.90;;;;;;6298583;22;20023;-82
2023/01/22 12:23:05;;;;;;;11.55;7.00;;;2.20;99.90;;;;;;6297311;22;20057;-81
2023/01/22 12:25:37;;;;;;;11.07;6.28;;;2.20;99.90;;;;;;6296727;22;20073;-81
2023/01/22 12:28:27;;;;;;;10.85;6.18;;;2.60;99.90;;;;;;6297454;22;20015;-81
2023/01/22 12:30:58;;;;;;;10.65;6.40;;;2.30;99.90;;;;;;6295006;22;20050;-81
2023/01/22 12:33:28;;;;;;;12.30;6.82;;;2.30;99.90;;;;;;6298359;22;20030;-81
2023/01/22 12:35:59;;;;;;;11.93;6.18;;;3.00;99.90;;;;;;6296915;22;20030;-82
2023/01/22 12:38:37;;;;;;;11.65;6.75;;;2.30;99.90;;;;;;6296908;22;20487;-81
2023/01/22 12:41:14;;;;;;;9.73;6.07;;;2.30;99.90;;;;;;6297395;22;20191;-81
2023/01/22 12:43:49;;;;;;;10.32;6.18;;;2.60;99.90;;;;;;6298109;22;20030;-81
2023/01/22 12:46:26;;;;;;;11.82;6.60;;;2.30;99.90;;;;;;6296433;22;20011;-82
2023/01/22 12:48:59;;;;;;;10.65;6.78;;;3.10;99.90;;;;;;6271826;22;20084;-81
2023/01/22 12:51:34;;;;;;;11.48;6.80;;;2.70;99.90;;;;;;6301275;22;20015;-82
2023/01/22 12:54:08;;;;;;;13.27;6.95;;;2.50;99.90;;;;;;6299499;22;20057;-82
2023/01/22 12:56:34;;;;;;;14.15;6.97;;;2.20;99.90;;;;;;6274729;22;20042;-82